createdAt,value
2023-05-08T00:02:23.313Z,96801.28
2023-05-08T00:04:51.479Z,96802.06
2023-05-08T00:07:19.409Z,96803.81
2023-05-08T00:09:48.727Z,96801.03
2023-05-08T00:12:16.589Z,96807.38
2023-05-08T00:14:44.431Z,96789.97
2023-05-08T00:17:12.626Z,96786.22
2023-05-08T00:19:40.570Z,96807.38
2023-05-08T00:22:08.418Z,96808.69
2023-05-08T00:24:36.735Z,96808.03
2023-05-08T00:27:06.301Z,96812.84
2023-05-08T00:29:34.112Z,96814.91
2023-05-08T00:32:02.013Z,96806.59
2023-05-08T00:34:30.457Z,96784.50
2023-05-08T00:36:58.606Z,96799.66
2023-05-08T00:39:26.658Z,96806.09
2023-05-08T00:41:54.889Z,96786.53
2023-05-08T00:44:24.073Z,96813.09
2023-05-08T00:46:52.201Z,96804.47
2023-05-08T00:49:20.435Z,96794.53
2023-05-08T00:51:50.228Z,96791.38
2023-05-08T00:54:18.389Z,96804.13
2023-05-08T00:56:46.942Z,96800.84
2023-05-08T00:59:16.900Z,96796.09
2023-05-08T01:01:47.771Z,96805.25
2023-05-08T01:04:16.175Z,96804.13
2023-05-08T01:06:44.096Z,96805.25
2023-05-08T01:09:12.203Z,96799.78
2023-05-08T01:11:48.972Z,96807.06
2023-05-08T01:14:20.703Z,96793.50
2023-05-08T01:16:58.464Z,96783.31
2023-05-08T01:19:44.485Z,96812.94
2023-05-08T01:22:22.066Z,96802.19
2023-05-08T01:25:30.613Z,96797.94
2023-05-08T01:28:23.009Z,96807.66
2023-05-08T01:31:05.393Z,96811.16
2023-05-08T01:33:42.820Z,96802.66
2023-05-08T01:36:21.903Z,96806.91
2023-05-08T01:38:56.565Z,96800.25
2023-05-08T01:41:28.306Z,96813.09
2023-05-08T01:44:06.188Z,96809.28
2023-05-08T01:46:35.006Z,96804.78
2023-05-08T01:49:07.935Z,96794.69
2023-05-08T01:51:40.390Z,96785.03
2023-05-08T01:54:12.300Z,96803.69
2023-05-08T01:56:43.778Z,96807.75
2023-05-08T01:59:14.150Z,96802.19
2023-05-08T02:01:43.070Z,96795.94
2023-05-08T02:04:13.675Z,96785.91
2023-05-08T02:06:42.078Z,96805.16
2023-05-08T02:09:12.019Z,96805.06
2023-05-08T02:11:42.514Z,96811.50
2023-05-08T02:14:12.690Z,96816.09
2023-05-08T02:16:43.185Z,96813.50
2023-05-08T02:19:13.873Z,96812.94
2023-05-08T02:21:42.688Z,96811.66
2023-05-08T02:24:10.948Z,96823.53
2023-05-08T02:26:40.662Z,96810.63
2023-05-08T02:29:09.065Z,96785.34
2023-05-08T02:31:37.736Z,96804.97
2023-05-08T02:34:06.839Z,96809.72
2023-05-08T02:36:38.732Z,96812.06
2023-05-08T02:39:08.851Z,96813.13
2023-05-08T02:41:38.344Z,96813.78
2023-05-08T02:44:06.562Z,96815.56
2023-05-08T02:46:40.651Z,96809.19
2023-05-08T02:49:13.898Z,96811.22
2023-05-08T02:51:54.931Z,96811.78
2023-05-08T02:54:26.435Z,96810.69
2023-05-08T02:56:59.696Z,96820.13
2023-05-08T02:59:32.414Z,96816.69
2023-05-08T03:02:07.715Z,96821.75
2023-05-08T03:04:38.683Z,96818.19
2023-05-08T03:07:07.904Z,96814.09
2023-05-08T03:09:42.523Z,96806.22
2023-05-08T03:12:15.486Z,96807.34
2023-05-08T03:14:48.167Z,96803.16
2023-05-08T03:17:18.135Z,96796.19
2023-05-08T03:19:51.998Z,96810.22
2023-05-08T03:22:22.305Z,96814.28
2023-05-08T03:24:51.275Z,96802.38
2023-05-08T03:27:20.464Z,96792.91
2023-05-08T03:29:50.594Z,96807.66
2023-05-08T03:32:19.391Z,96811.00
2023-05-08T03:34:48.431Z,96808.22
2023-05-08T03:37:16.274Z,96817.44
2023-05-08T03:39:45.748Z,96801.03
2023-05-08T03:42:21.400Z,96814.34
2023-05-08T03:44:51.320Z,96811.16
2023-05-08T03:47:20.112Z,96810.72
2023-05-08T03:49:48.772Z,96810.81
2023-05-08T03:52:18.791Z,96818.59
2023-05-08T03:54:47.973Z,96818.78
2023-05-08T03:57:16.069Z,96824.47
2023-05-08T03:59:51.143Z,96821.38
2023-05-08T04:02:26.951Z,96819.75
2023-05-08T04:05:03.686Z,96828.56
2023-05-08T04:07:38.439Z,96830.03
2023-05-08T04:10:14.726Z,96829.06
2023-05-08T04:12:58.590Z,96822.34
2023-05-08T04:15:30.416Z,96830.50
2023-05-08T04:18:06.191Z,96827.56
2023-05-08T04:20:35.225Z,96839.81
2023-05-08T04:23:07.025Z,96841.53
2023-05-08T04:25:40.000Z,96838.59
2023-05-08T04:28:08.361Z,96840.06
2023-05-08T04:30:37.379Z,96819.22
2023-05-08T04:33:06.093Z,96833.38
2023-05-08T04:35:34.980Z,96848.94
2023-05-08T04:38:03.408Z,96848.81
2023-05-08T04:40:31.096Z,96836.34
2023-05-08T04:43:00.377Z,96827.13
2023-05-08T04:45:28.176Z,96831.19
2023-05-08T04:47:55.944Z,96840.19
2023-05-08T04:50:23.871Z,96841.91
2023-05-08T04:52:51.707Z,96834.06
2023-05-08T04:55:19.572Z,96837.31
2023-05-08T04:57:47.323Z,96840.19
2023-05-08T05:00:17.484Z,96827.78
2023-05-08T05:02:45.237Z,96840.00
2023-05-08T05:05:13.274Z,96843.59
2023-05-08T05:07:41.508Z,96829.53
2023-05-08T05:10:10.011Z,96831.06
2023-05-08T05:12:38.926Z,96842.78
2023-05-08T05:15:07.844Z,96841.06
2023-05-08T05:17:37.048Z,96845.06
2023-05-08T05:20:05.992Z,96847.97
2023-05-08T05:22:34.169Z,96837.72
2023-05-08T05:25:02.020Z,96844.75
2023-05-08T05:27:29.940Z,96850.19
2023-05-08T05:29:58.727Z,96856.63
2023-05-08T05:32:26.560Z,96847.81
2023-05-08T05:34:56.818Z,96853.38
2023-05-08T05:37:24.627Z,96848.75
2023-05-08T05:39:52.355Z,96858.66
2023-05-08T05:42:20.128Z,96857.47
2023-05-08T05:44:47.909Z,96868.63
2023-05-08T05:47:16.113Z,96850.53
2023-05-08T05:49:46.961Z,96857.97
2023-05-08T05:52:16.054Z,96860.22
2023-05-08T05:54:43.797Z,96862.91
2023-05-08T05:57:13.289Z,96843.97
2023-05-08T05:59:41.298Z,96867.34
2023-05-08T06:02:15.903Z,96860.00
2023-05-08T06:04:43.669Z,96849.31
2023-05-08T06:07:11.448Z,96859.91
2023-05-08T06:09:41.099Z,96858.03
2023-05-08T06:12:09.290Z,96849.97
2023-05-08T06:14:37.031Z,96865.22
2023-05-08T06:17:04.947Z,96860.72
2023-05-08T06:19:32.866Z,96857.94
2023-05-08T06:22:00.692Z,96828.72
2023-05-08T06:24:28.472Z,96871.91
2023-05-08T06:26:57.710Z,96855.84
2023-05-08T06:29:25.520Z,96861.69
2023-05-08T06:31:53.278Z,96857.16
2023-05-08T06:34:21.016Z,96866.44
2023-05-08T06:36:48.761Z,96859.13
2023-05-08T06:39:16.739Z,96858.09
2023-05-08T06:41:45.076Z,96867.50
2023-05-08T06:44:14.159Z,96865.84
2023-05-08T06:46:42.044Z,96855.84
2023-05-08T06:49:10.220Z,96861.53
2023-05-08T06:51:38.307Z,96851.63
2023-05-08T06:54:08.240Z,96869.06
2023-05-08T06:56:36.555Z,96871.03
2023-05-08T06:59:08.353Z,96872.81
2023-05-08T07:01:38.541Z,96861.06
2023-05-08T07:04:06.690Z,96865.44
2023-05-08T07:06:34.826Z,96863.22
2023-05-08T07:09:03.072Z,96871.53
2023-05-08T07:11:30.787Z,96877.66
2023-05-08T07:13:58.519Z,96879.22
2023-05-08T07:16:26.295Z,96861.22
2023-05-08T07:18:55.511Z,96869.75
2023-05-08T07:21:23.266Z,96869.97
2023-05-08T07:23:51.802Z,96869.53
2023-05-08T07:26:19.857Z,96859.41
2023-05-08T07:28:47.640Z,96865.72
2023-05-08T07:31:15.617Z,96857.34
2023-05-08T07:33:43.396Z,96863.00
2023-05-08T07:36:12.477Z,96833.72
2023-05-08T07:38:40.449Z,96868.22
2023-05-08T07:41:08.394Z,96855.53
2023-05-08T07:43:36.954Z,96869.59
2023-05-08T07:46:04.944Z,96863.59
2023-05-08T07:48:32.667Z,96865.09
2023-05-08T07:51:00.424Z,96856.44
2023-05-08T07:53:29.581Z,96864.41
2023-05-08T07:55:57.354Z,96847.25
2023-05-08T07:58:25.075Z,96848.19
2023-05-08T08:00:52.841Z,96860.53
2023-05-08T08:03:20.738Z,96861.75
2023-05-08T08:05:48.582Z,96858.72
2023-05-08T08:08:16.474Z,96837.25
2023-05-08T08:10:45.606Z,96842.22
2023-05-08T08:13:13.408Z,96848.97
2023-05-08T08:15:41.720Z,96844.94
2023-05-08T08:18:09.649Z,96858.13
2023-05-08T08:20:37.593Z,96842.50
2023-05-08T08:23:06.044Z,96829.75
2023-05-08T08:25:34.058Z,96840.31
2023-05-08T08:28:03.294Z,96840.84
2023-05-08T08:30:37.139Z,96851.66
2023-05-08T08:33:06.392Z,96844.91
2023-05-08T08:35:34.328Z,96846.25
2023-05-08T08:38:02.341Z,96836.81
2023-05-08T08:40:32.291Z,96850.88
2023-05-08T08:43:00.386Z,96829.47
2023-05-08T08:45:29.653Z,96842.19
2023-05-08T08:48:02.314Z,96839.38
2023-05-08T08:50:33.857Z,96845.66
2023-05-08T08:53:10.860Z,96839.94
2023-05-08T08:55:44.436Z,96833.09
2023-05-08T08:58:18.763Z,96837.94
2023-05-08T09:00:48.615Z,96827.38
2023-05-08T09:03:17.214Z,96843.38
2023-05-08T09:05:45.470Z,96847.53
2023-05-08T09:08:14.029Z,96842.84
2023-05-08T09:10:44.802Z,96834.09
2023-05-08T09:13:19.849Z,96836.91
2023-05-08T09:15:51.744Z,96827.44
2023-05-08T09:18:19.779Z,96833.91
2023-05-08T09:20:47.970Z,96835.97
2023-05-08T09:23:19.399Z,96831.72
2023-05-08T09:25:48.607Z,96843.03
2023-05-08T09:28:18.150Z,96827.56
2023-05-08T09:30:57.746Z,96840.91
2023-05-08T09:33:26.952Z,96836.38
2023-05-08T09:36:01.627Z,96834.94
2023-05-08T09:38:37.537Z,96837.41
2023-05-08T09:41:10.174Z,96835.44
2023-05-08T09:43:38.671Z,96830.47
2023-05-08T09:46:27.642Z,96834.25
2023-05-08T09:48:56.752Z,96832.84
2023-05-08T09:51:25.727Z,96824.19
2023-05-08T09:53:54.258Z,96826.81
2023-05-08T09:56:35.419Z,96826.28
2023-05-08T09:59:04.693Z,96833.19
2023-05-08T10:01:35.550Z,96841.56
2023-05-08T10:04:05.882Z,96838.69
2023-05-08T10:06:33.942Z,96838.84
2023-05-08T10:09:09.409Z,96835.09
2023-05-08T10:11:37.789Z,96834.41
2023-05-08T10:14:05.573Z,96831.66
2023-05-08T10:16:40.172Z,96834.09
2023-05-08T10:19:14.295Z,96836.41
2023-05-08T10:21:44.691Z,96842.13
2023-05-08T10:24:16.763Z,96831.66
2023-05-08T10:27:05.048Z,96835.44
2023-05-08T10:29:35.291Z,96829.31
2023-05-08T10:32:06.361Z,96834.69
2023-05-08T10:34:36.081Z,96824.97
2023-05-08T10:37:04.265Z,96819.66
2023-05-08T10:39:32.981Z,96806.91
2023-05-08T10:42:01.016Z,96809.00
2023-05-08T10:44:30.600Z,96802.44
2023-05-08T10:47:03.056Z,96818.06
2023-05-08T10:49:41.316Z,96812.44
2023-05-08T10:52:17.563Z,96811.38
2023-05-08T10:55:17.615Z,96810.53
2023-05-08T10:58:03.473Z,96807.13
2023-05-08T11:00:33.904Z,96804.66
2023-05-08T11:03:16.881Z,96803.22
2023-05-08T11:05:54.794Z,96794.47
2023-05-08T11:08:24.778Z,96794.03
2023-05-08T11:11:04.988Z,96797.19
2023-05-08T11:13:35.776Z,96797.69
2023-05-08T11:16:04.411Z,96791.31
2023-05-08T11:18:45.807Z,96797.81
2023-05-08T11:21:22.175Z,96795.78
2023-05-08T11:23:57.974Z,96795.84
2023-05-08T11:26:40.687Z,96794.31
2023-05-08T11:29:18.189Z,96793.50
2023-05-08T11:31:53.219Z,96784.88
2023-05-08T11:34:46.295Z,96782.81
2023-05-08T11:37:19.340Z,96775.53
2023-05-08T11:39:47.193Z,96774.22
2023-05-08T11:42:36.838Z,96782.28
2023-05-08T11:45:09.660Z,96785.66
2023-05-08T11:47:41.469Z,96789.72
2023-05-08T11:50:10.808Z,96779.59
2023-05-08T11:52:41.684Z,96784.34
2023-05-08T11:55:11.334Z,96772.16
2023-05-08T11:57:39.545Z,96784.09
2023-05-08T12:00:08.427Z,96777.97
2023-05-08T12:02:38.306Z,96771.47
2023-05-08T12:05:07.244Z,96762.56
2023-05-08T12:07:43.328Z,96775.06
2023-05-08T12:10:12.946Z,96763.75
2023-05-08T12:12:42.122Z,96761.03
2023-05-08T12:15:11.398Z,96768.03
2023-05-08T12:17:39.550Z,96764.28
2023-05-08T12:20:15.238Z,96771.97
2023-05-08T12:22:44.531Z,96771.53
2023-05-08T12:25:14.254Z,96762.28
2023-05-08T12:27:42.244Z,96769.25
2023-05-08T12:30:12.176Z,96773.72
2023-05-08T12:32:42.191Z,96769.53
2023-05-08T12:35:11.655Z,96770.13
2023-05-08T12:37:39.738Z,96771.88
2023-05-08T12:40:09.456Z,96771.38
2023-05-08T12:42:45.342Z,96771.97
2023-05-08T12:45:19.885Z,96761.09
2023-05-08T12:47:48.814Z,96766.97
2023-05-08T12:50:18.066Z,96765.03
2023-05-08T12:52:46.371Z,96756.44
2023-05-08T12:55:25.689Z,96758.22
2023-05-08T12:58:03.395Z,96763.94
2023-05-08T13:00:41.835Z,96771.06
2023-05-08T13:03:11.453Z,96763.97
2023-05-08T13:05:46.271Z,96781.84
2023-05-08T13:08:14.432Z,96778.28
2023-05-08T13:10:47.218Z,96770.16
2023-05-08T13:13:17.445Z,96785.13
2023-05-08T13:15:45.816Z,96779.19
2023-05-08T13:18:14.044Z,96769.84
2023-05-08T13:20:42.134Z,96783.16
2023-05-08T13:23:10.656Z,96784.75
2023-05-08T13:25:39.918Z,96782.59
2023-05-08T13:28:09.458Z,96783.13
2023-05-08T13:30:39.135Z,96793.47
2023-05-08T13:33:07.338Z,96780.50
2023-05-08T13:35:35.944Z,96789.19
2023-05-08T13:38:04.220Z,96782.41
2023-05-08T13:40:32.174Z,96785.91
2023-05-08T13:43:00.075Z,96768.06
2023-05-08T13:45:28.028Z,96785.91
2023-05-08T13:47:57.393Z,96778.06
2023-05-08T13:50:25.382Z,96774.28
2023-05-08T13:52:55.024Z,96775.06
2023-05-08T13:55:23.604Z,96772.31
2023-05-08T13:57:52.010Z,96763.41
2023-05-08T14:00:20.758Z,96755.59
2023-05-08T14:02:50.754Z,96765.88
2023-05-08T14:05:21.674Z,96770.22
2023-05-08T14:07:49.625Z,96755.31
2023-05-08T14:10:18.198Z,96750.47
2023-05-08T14:12:46.822Z,96761.97
2023-05-08T14:15:15.910Z,96761.19
2023-05-08T14:17:46.156Z,96764.34
2023-05-08T14:20:14.408Z,96765.63
2023-05-08T14:22:43.781Z,96731.59
2023-05-08T14:25:14.956Z,96766.72
2023-05-08T14:27:43.005Z,96759.47
2023-05-08T14:30:11.983Z,96765.91
2023-05-08T14:32:40.213Z,96764.38
2023-05-08T14:35:10.307Z,96768.00
2023-05-08T14:37:38.785Z,96757.09
2023-05-08T14:40:09.608Z,96771.97
2023-05-08T14:42:38.528Z,96777.03
2023-05-08T14:45:10.357Z,96776.66
2023-05-08T14:47:38.876Z,96773.91
2023-05-08T14:50:07.650Z,96780.44
2023-05-08T14:52:35.717Z,96783.47
2023-05-08T14:55:03.857Z,96793.50
2023-05-08T14:57:33.453Z,96788.09
2023-05-08T15:00:01.472Z,96789.19
2023-05-08T15:02:29.474Z,96786.41
2023-05-08T15:04:57.442Z,96793.31
2023-05-08T15:07:25.378Z,96814.75
2023-05-08T15:09:53.955Z,96803.72
2023-05-08T15:12:21.839Z,96822.50
2023-05-08T15:14:51.294Z,96800.53
2023-05-08T15:17:19.080Z,96825.03
2023-05-08T15:19:46.921Z,96825.78
2023-05-08T15:22:14.833Z,96827.94
2023-05-08T15:24:42.742Z,96835.09
2023-05-08T15:27:12.088Z,96836.38
2023-05-08T15:29:40.756Z,96817.34
2023-05-08T15:32:10.347Z,96831.63
2023-05-08T15:34:39.956Z,96825.22
2023-05-08T15:37:08.561Z,96827.94
2023-05-08T15:39:39.588Z,96806.88
2023-05-08T15:42:07.499Z,96830.38
2023-05-08T15:44:53.225Z,96825.44
2023-05-08T15:47:24.144Z,96793.22
2023-05-08T15:49:52.124Z,96822.66
2023-05-08T15:52:20.011Z,96823.50
2023-05-08T15:54:47.855Z,96814.34
2023-05-08T15:57:16.088Z,96812.72
2023-05-08T15:59:43.903Z,96809.09
2023-05-08T16:02:11.874Z,96817.28
2023-05-08T16:04:41.191Z,96822.47
2023-05-08T16:07:08.958Z,96813.47
2023-05-08T16:09:36.742Z,96813.63
2023-05-08T16:12:04.605Z,96803.06
2023-05-08T16:14:32.316Z,96812.72
2023-05-08T16:17:00.311Z,96803.59
2023-05-08T16:19:28.074Z,96807.66
2023-05-08T16:21:57.393Z,96739.53
2023-05-08T16:24:25.145Z,96812.06
2023-05-08T16:26:53.156Z,96776.31
2023-05-08T16:29:20.955Z,96818.81
2023-05-08T16:31:49.050Z,96822.94
2023-05-08T16:34:16.958Z,96794.19
2023-05-08T16:36:45.593Z,96820.19
2023-05-08T16:39:14.768Z,96829.34
2023-05-08T16:41:42.552Z,96826.25
2023-05-08T16:44:10.454Z,96824.03
2023-05-08T16:46:38.302Z,96830.59
2023-05-08T16:49:05.997Z,96826.59
2023-05-08T16:51:33.771Z,96834.38
2023-05-08T16:54:01.691Z,96829.19
2023-05-08T16:56:30.809Z,96831.75
2023-05-08T16:58:58.595Z,96825.31
2023-05-08T17:01:26.542Z,96836.72
2023-05-08T17:03:54.295Z,96825.25
2023-05-08T17:06:22.179Z,96828.13
2023-05-08T17:08:50.244Z,96818.81
2023-05-08T17:11:17.984Z,96825.81
2023-05-08T17:13:47.995Z,96838.16
2023-05-08T17:16:17.734Z,96839.88
2023-05-08T17:18:47.698Z,96839.63
2023-05-08T17:21:15.552Z,96835.69
2023-05-08T17:23:43.352Z,96854.03
2023-05-08T17:26:11.111Z,96856.81
2023-05-08T17:28:38.914Z,96865.28
2023-05-08T17:31:08.222Z,96852.78
2023-05-08T17:33:36.091Z,96854.41
2023-05-08T17:36:03.883Z,96863.53
2023-05-08T17:38:31.684Z,96849.06
2023-05-08T17:41:00.799Z,96806.72
2023-05-08T17:43:30.887Z,96858.78
2023-05-08T17:45:58.908Z,96859.34
2023-05-08T17:48:28.307Z,96863.47
2023-05-08T17:50:56.166Z,96871.09
2023-05-08T17:53:23.914Z,96864.59
2023-05-08T17:55:52.210Z,96873.09
2023-05-08T17:58:20.021Z,96868.44
2023-05-08T18:00:47.755Z,96870.38
2023-05-08T18:03:15.690Z,96871.72
2023-05-08T18:05:45.152Z,96874.91
2023-05-08T18:08:12.945Z,96870.84
2023-05-08T18:10:40.914Z,96868.44
2023-05-08T18:13:08.843Z,96850.84
2023-05-08T18:15:38.943Z,96882.47
2023-05-08T18:18:06.838Z,96881.38
2023-05-08T18:20:34.663Z,96886.16
2023-05-08T18:23:04.079Z,96878.03
2023-05-08T18:25:31.922Z,96877.28
2023-05-08T18:28:00.500Z,96884.31
2023-05-08T18:30:28.285Z,96896.69
2023-05-08T18:32:55.987Z,96892.03
2023-05-08T18:35:23.767Z,96891.31
2023-05-08T18:37:51.757Z,96892.63
2023-05-08T18:40:21.025Z,96891.25
2023-05-08T18:42:48.904Z,96869.31
2023-05-08T18:45:18.486Z,96821.53
2023-05-08T18:47:46.447Z,96871.69
2023-05-08T18:50:14.389Z,96882.53
2023-05-08T18:52:42.324Z,96883.31
2023-05-08T18:55:10.697Z,96889.88
2023-05-08T18:57:39.785Z,96898.97
2023-05-08T19:00:08.736Z,96899.81
2023-05-08T19:02:44.598Z,96895.72
2023-05-08T19:05:14.051Z,96895.16
2023-05-08T19:07:43.714Z,96908.56
2023-05-08T19:10:11.955Z,96902.19
2023-05-08T19:12:41.587Z,96901.34
2023-05-08T19:15:13.415Z,96908.44
2023-05-08T19:17:42.435Z,96890.75
2023-05-08T19:20:11.411Z,96887.91
2023-05-08T19:22:39.426Z,96904.53
2023-05-08T19:25:07.599Z,96903.22
2023-05-08T19:27:35.510Z,96890.75
2023-05-08T19:30:05.361Z,96909.13
2023-05-08T19:32:33.093Z,96904.78
2023-05-08T19:35:02.525Z,96904.38
2023-05-08T19:37:30.344Z,96905.50
2023-05-08T19:39:58.294Z,96905.81
2023-05-08T19:42:26.125Z,96910.06
2023-05-08T19:44:53.859Z,96901.28
2023-05-08T19:47:23.054Z,96907.50
2023-05-08T19:49:51.185Z,96906.81
2023-05-08T19:52:19.874Z,96907.78
2023-05-08T19:54:47.801Z,96891.97
2023-05-08T19:57:15.778Z,96891.09
2023-05-08T19:59:43.766Z,96871.22
2023-05-08T20:02:11.508Z,96893.72
2023-05-08T20:07:11.594Z,96882.00
2023-05-08T20:09:42.557Z,96899.53
2023-05-08T20:12:10.631Z,96883.50
2023-05-08T20:14:38.641Z,96883.06
2023-05-08T20:17:15.386Z,96885.75
2023-05-08T20:19:47.574Z,96883.59
2023-05-08T20:22:18.137Z,96901.22
2023-05-08T20:24:46.836Z,96900.38
2023-05-08T20:27:15.196Z,96896.53
2023-05-08T20:29:43.063Z,96905.19
2023-05-08T20:32:14.921Z,96908.19
2023-05-08T20:34:46.895Z,96907.94
2023-05-08T20:37:16.106Z,96891.47
2023-05-08T20:39:45.112Z,96899.91
2023-05-08T20:42:14.066Z,96877.63
2023-05-08T20:44:41.804Z,96849.38
2023-05-08T20:47:12.173Z,96901.00
2023-05-08T20:49:40.063Z,96894.91
2023-05-08T20:52:12.000Z,96887.44
2023-05-08T20:54:39.786Z,96880.63
2023-05-08T20:57:08.289Z,96895.66
2023-05-08T20:59:36.170Z,96873.06
2023-05-08T21:02:04.002Z,96871.28
2023-05-08T21:04:31.951Z,96886.81
2023-05-08T21:07:00.050Z,96887.97
2023-05-08T21:09:29.308Z,96881.00
2023-05-08T21:11:57.195Z,96885.13
2023-05-08T21:14:25.084Z,96875.00
2023-05-08T21:16:55.029Z,96885.13
2023-05-08T21:19:23.742Z,96879.03
2023-05-08T21:21:51.555Z,96888.19
2023-05-08T21:24:19.427Z,96876.88
2023-05-08T21:26:48.740Z,96858.78
2023-05-08T21:29:16.819Z,96868.47
2023-05-08T21:31:44.701Z,96884.91
2023-05-08T21:34:13.512Z,96871.28
2023-05-08T21:36:41.439Z,96882.19
2023-05-08T21:39:09.608Z,96875.50
2023-05-08T21:41:37.321Z,96884.13
2023-05-08T21:44:06.810Z,96876.25
2023-05-08T21:46:34.720Z,96868.53
2023-05-08T21:49:04.394Z,96861.53
2023-05-08T21:51:33.754Z,96860.16
2023-05-08T21:54:01.469Z,96860.34
2023-05-08T21:56:29.371Z,96871.56
2023-05-08T21:58:58.988Z,96870.59
2023-05-08T22:01:28.128Z,96870.75
2023-05-08T22:03:58.311Z,96869.13
2023-05-08T22:06:26.430Z,96861.03
2023-05-08T22:08:54.270Z,96863.09
2023-05-08T22:11:22.321Z,96874.44
2023-05-08T22:13:50.231Z,96869.69
2023-05-08T22:16:18.798Z,96859.41
2023-05-08T22:18:48.176Z,96866.66
2023-05-08T22:21:16.020Z,96853.22
2023-05-08T22:23:43.785Z,96862.22
2023-05-08T22:26:11.706Z,96858.66
2023-05-08T22:28:39.752Z,96849.03
2023-05-08T22:31:07.788Z,96852.44
2023-05-08T22:33:35.673Z,96842.47
2023-05-08T22:36:05.774Z,96843.19
2023-05-08T22:38:33.695Z,96851.38
2023-05-08T22:41:01.590Z,96830.66
2023-05-08T22:43:29.583Z,96825.00
2023-05-08T22:45:58.430Z,96823.47
2023-05-08T22:48:30.828Z,96840.19
2023-05-08T22:50:58.753Z,96830.34
2023-05-08T22:53:27.954Z,96818.91
2023-05-08T22:55:55.954Z,96823.28
2023-05-08T22:58:25.186Z,96808.78
2023-05-08T23:00:54.955Z,96800.09
2023-05-08T23:03:22.886Z,96800.56
2023-05-08T23:05:50.716Z,96812.94
2023-05-08T23:08:18.540Z,96805.94
2023-05-08T23:10:50.262Z,96808.72
2023-05-08T23:13:18.174Z,96808.09
2023-05-08T23:15:46.034Z,96782.81
2023-05-08T23:18:13.916Z,96793.91
2023-05-08T23:20:42.891Z,96809.28
2023-05-08T23:23:10.825Z,96799.44
2023-05-08T23:25:41.130Z,96794.06
2023-05-08T23:28:10.450Z,96774.28
2023-05-08T23:30:38.194Z,96774.66
2023-05-08T23:33:06.267Z,96771.41
2023-05-08T23:35:34.040Z,96783.00
2023-05-08T23:38:01.857Z,96705.91
2023-05-08T23:40:29.994Z,96781.53
2023-05-08T23:43:00.202Z,96729.19
2023-05-08T23:45:30.029Z,96780.94
2023-05-08T23:47:58.562Z,96761.44
2023-05-08T23:50:26.447Z,96777.56
2023-05-08T23:52:54.289Z,96791.88
2023-05-08T23:55:22.063Z,96784.97
2023-05-08T23:57:49.800Z,96777.81
